createdAt,value
2019-05-19T00:00:43.237Z,12.70
2019-05-19T00:03:12.935Z,12.70
2019-05-19T00:05:42.035Z,12.70
2019-05-19T00:08:11.268Z,12.70
2019-05-19T00:10:40.385Z,12.70
2019-05-19T00:13:09.350Z,12.70
2019-05-19T00:15:38.451Z,12.70
2019-05-19T00:18:07.473Z,12.70
2019-05-19T00:20:36.620Z,12.70
2019-05-19T00:23:05.713Z,12.70
2019-05-19T00:25:35.122Z,12.60
2019-05-19T00:28:04.485Z,12.60
2019-05-19T00:30:33.565Z,12.70
2019-05-19T00:33:02.576Z,12.70
2019-05-19T00:35:31.629Z,12.60
2019-05-19T00:38:00.669Z,12.60
2019-05-19T00:40:29.629Z,12.50
2019-05-19T00:42:58.579Z,12.60
2019-05-19T00:45:27.749Z,12.60
2019-05-19T00:47:56.797Z,12.60
2019-05-19T00:50:25.903Z,12.60
2019-05-19T00:52:54.970Z,12.60
2019-05-19T00:55:24.083Z,12.60
2019-05-19T00:57:53.415Z,12.60
2019-05-19T01:00:22.528Z,12.50
2019-05-19T01:02:51.591Z,12.50
2019-05-19T01:05:20.939Z,12.50
2019-05-19T01:07:50.137Z,12.50
2019-05-19T01:10:19.389Z,12.50
2019-05-19T01:12:48.508Z,12.50
2019-05-19T01:15:19.890Z,12.50
2019-05-19T01:17:48.848Z,12.50
2019-05-19T01:20:18.048Z,12.50
2019-05-19T01:22:47.082Z,12.40
2019-05-19T01:25:16.361Z,12.40
2019-05-19T01:27:45.475Z,12.40
2019-05-19T01:30:15.026Z,12.40
2019-05-19T01:32:44.070Z,12.40
2019-05-19T01:35:13.272Z,12.40
2019-05-19T01:37:42.420Z,12.40
2019-05-19T01:40:11.726Z,12.40
2019-05-19T01:42:40.890Z,12.30
2019-05-19T01:45:10.774Z,12.40
2019-05-19T01:47:40.020Z,12.40
2019-05-19T01:50:17.605Z,12.40
2019-05-19T01:52:40.983Z,12.40
2019-05-19T01:55:10.110Z,12.30
2019-05-19T01:57:39.200Z,12.30
2019-05-19T02:00:08.907Z,12.30
2019-05-19T02:02:39.591Z,12.30
2019-05-19T02:05:09.769Z,12.30
2019-05-19T02:07:39.110Z,12.30
2019-05-19T02:10:09.894Z,12.30
2019-05-19T02:12:39.031Z,12.30
2019-05-19T02:15:08.737Z,12.30
2019-05-19T02:17:37.769Z,12.20
2019-05-19T02:20:08.505Z,12.30
2019-05-19T02:22:37.605Z,12.30
2019-05-19T02:25:07.369Z,12.40
2019-05-19T02:27:36.477Z,12.40
2019-05-19T02:30:09.707Z,12.50
2019-05-19T02:32:38.790Z,12.50
2019-05-19T02:35:08.222Z,12.50
2019-05-19T02:37:37.418Z,12.60
2019-05-19T02:40:07.957Z,12.60
2019-05-19T02:42:41.481Z,12.70
2019-05-19T02:45:11.451Z,12.70
2019-05-19T02:47:43.188Z,12.70
2019-05-19T02:50:12.922Z,12.80
2019-05-19T02:52:44.061Z,12.80
2019-05-19T02:55:13.225Z,12.80
2019-05-19T02:57:43.142Z,12.70
2019-05-19T03:00:13.201Z,12.80
2019-05-19T03:02:42.337Z,12.80
2019-05-19T03:05:11.545Z,12.80
2019-05-19T03:07:40.583Z,12.80
2019-05-19T03:10:10.084Z,12.80
2019-05-19T03:12:39.239Z,12.80
2019-05-19T03:15:08.970Z,12.80
2019-05-19T03:17:38.198Z,12.70
2019-05-19T03:20:07.421Z,12.70
2019-05-19T03:22:36.366Z,12.70
2019-05-19T03:25:06.766Z,12.70
2019-05-19T03:27:35.809Z,12.70
2019-05-19T03:30:26.248Z,12.70
2019-05-19T03:32:57.169Z,12.60
2019-05-19T03:35:26.216Z,12.60
2019-05-19T03:37:55.355Z,12.70
2019-05-19T03:40:24.526Z,12.70
2019-05-19T03:42:53.682Z,12.80
2019-05-19T03:45:22.763Z,12.80
2019-05-19T03:47:51.738Z,12.80
2019-05-19T03:50:20.751Z,12.80
2019-05-19T03:52:49.728Z,12.80
2019-05-19T03:55:18.877Z,12.80
2019-05-19T03:57:47.985Z,12.80
2019-05-19T04:00:18.967Z,12.80
2019-05-19T04:02:48.101Z,12.90
2019-05-19T04:05:17.218Z,12.90
2019-05-19T04:07:46.249Z,12.90
2019-05-19T04:10:15.637Z,12.90
2019-05-19T04:12:44.792Z,12.90
2019-05-19T04:15:14.265Z,12.90
2019-05-19T04:17:43.263Z,13.00
2019-05-19T04:20:13.224Z,13.00
2019-05-19T04:22:42.407Z,13.00
2019-05-19T04:25:11.716Z,13.00
2019-05-19T04:27:40.770Z,13.00
2019-05-19T04:30:10.238Z,13.00
2019-05-19T04:32:39.200Z,13.00
2019-05-19T04:35:08.252Z,13.00
2019-05-19T04:37:37.196Z,13.00
2019-05-19T04:40:06.937Z,13.00
2019-05-19T04:42:36.209Z,13.00
2019-05-19T04:45:05.446Z,13.00
2019-05-19T04:47:34.477Z,13.10
2019-05-19T04:50:05.472Z,13.10
2019-05-19T04:52:34.414Z,13.10
2019-05-19T04:55:04.227Z,13.20
2019-05-19T04:57:33.510Z,13.20
2019-05-19T05:00:02.967Z,13.20
2019-05-19T05:02:31.992Z,13.30
2019-05-19T05:05:01.116Z,13.30
2019-05-19T05:07:30.073Z,13.40
2019-05-19T05:09:59.037Z,13.40
2019-05-19T05:12:28.157Z,13.50
2019-05-19T05:14:57.135Z,13.60
2019-05-19T05:17:26.069Z,13.60
2019-05-19T05:19:55.036Z,13.70
2019-05-19T05:22:23.991Z,13.70
2019-05-19T05:24:53.062Z,13.70
2019-05-19T05:27:22.213Z,13.70
2019-05-19T05:29:51.233Z,13.70
2019-05-19T05:32:20.291Z,13.70
2019-05-19T05:34:49.237Z,13.80
2019-05-19T05:37:18.396Z,13.70
2019-05-19T05:39:47.343Z,13.80
2019-05-19T05:42:16.329Z,13.80
2019-05-19T05:44:45.426Z,13.70
2019-05-19T05:47:14.392Z,13.70
2019-05-19T05:49:43.341Z,13.60
2019-05-19T05:52:12.373Z,13.70
2019-05-19T05:54:41.305Z,13.70
2019-05-19T05:57:10.450Z,13.70
2019-05-19T05:59:39.392Z,13.80
2019-05-19T06:02:08.357Z,13.80
2019-05-19T06:04:37.323Z,13.80
2019-05-19T06:07:06.304Z,13.80
2019-05-19T06:09:35.245Z,13.90
2019-05-19T06:12:04.362Z,13.90
2019-05-19T06:14:33.312Z,14.00
2019-05-19T06:17:02.522Z,14.00
2019-05-19T06:19:31.548Z,14.10
2019-05-19T06:22:00.604Z,14.10
2019-05-19T06:24:29.622Z,14.20
2019-05-19T06:26:58.813Z,14.20
2019-05-19T06:29:27.900Z,14.20
2019-05-19T06:31:58.597Z,14.20
2019-05-19T06:34:27.689Z,14.10
2019-05-19T06:36:56.828Z,14.10
2019-05-19T06:39:25.764Z,14.20
2019-05-19T06:41:54.885Z,14.20
2019-05-19T06:44:23.853Z,14.20
2019-05-19T06:46:52.885Z,14.20
2019-05-19T06:49:21.904Z,14.30
2019-05-19T06:51:51.026Z,14.30
2019-05-19T06:54:20.041Z,14.40
2019-05-19T06:56:49.064Z,14.40
2019-05-19T06:59:18.037Z,14.50
2019-05-19T07:01:47.247Z,14.50
2019-05-19T07:04:16.289Z,14.50
2019-05-19T07:06:45.506Z,14.60
2019-05-19T07:09:14.563Z,14.60
2019-05-19T07:11:43.603Z,14.60
2019-05-19T07:14:12.644Z,14.60
2019-05-19T07:16:41.575Z,14.50
2019-05-19T07:19:10.586Z,14.40
2019-05-19T07:21:39.613Z,14.50
2019-05-19T07:24:08.662Z,14.60
2019-05-19T07:26:37.607Z,14.60
2019-05-19T07:29:06.780Z,14.70
2019-05-19T07:31:35.747Z,14.70
2019-05-19T07:34:04.936Z,14.70
2019-05-19T07:36:34.059Z,14.70
2019-05-19T07:39:04.759Z,14.70
2019-05-19T07:41:33.693Z,14.70
2019-05-19T07:44:02.918Z,14.70
2019-05-19T07:46:32.030Z,14.90
2019-05-19T07:49:01.423Z,15.00
2019-05-19T07:51:30.370Z,15.10
2019-05-19T07:53:59.327Z,15.10
2019-05-19T07:56:28.309Z,15.10
2019-05-19T07:58:57.287Z,15.20
2019-05-19T08:01:26.401Z,15.20
2019-05-19T08:03:55.384Z,15.30
2019-05-19T08:06:24.421Z,15.40
2019-05-19T08:08:53.437Z,15.50
2019-05-19T08:11:22.439Z,15.60
2019-05-19T08:13:51.454Z,15.70
2019-05-19T08:16:20.499Z,15.90
2019-05-19T08:18:49.501Z,16.00
2019-05-19T08:21:18.544Z,16.20
2019-05-19T08:23:59.775Z,16.30
2019-05-19T08:26:18.150Z,16.20
2019-05-19T08:28:47.222Z,16.20
2019-05-19T08:31:16.192Z,16.10
2019-05-19T08:33:45.367Z,16.10
2019-05-19T08:36:14.578Z,16.20
2019-05-19T08:38:43.771Z,16.30
2019-05-19T08:41:12.963Z,16.10
2019-05-19T08:43:41.993Z,16.30
2019-05-19T08:46:11.213Z,16.40
2019-05-19T08:48:40.355Z,16.50
2019-05-19T08:51:09.540Z,16.50
2019-05-19T08:53:38.686Z,16.50
2019-05-19T08:56:07.746Z,16.50
2019-05-19T08:58:36.715Z,16.70
2019-05-19T09:01:05.965Z,16.70
2019-05-19T09:03:35.105Z,16.60
2019-05-19T09:06:04.303Z,16.50
2019-05-19T09:08:33.350Z,16.60
2019-05-19T09:11:02.393Z,16.70
2019-05-19T09:13:31.569Z,16.70
2019-05-19T09:16:00.812Z,16.80
2019-05-19T09:18:30.064Z,16.70
2019-05-19T09:20:59.243Z,16.70
2019-05-19T09:23:29.469Z,16.80
2019-05-19T09:40:12.909Z,16.90
2019-05-19T09:42:42.055Z,18.30
2019-05-19T09:45:11.622Z,18.10
2019-05-19T09:47:41.112Z,17.90
2019-05-19T09:50:11.218Z,18.00
2019-05-19T09:52:40.303Z,17.90
2019-05-19T09:55:09.870Z,17.90
2019-05-19T09:57:38.863Z,17.70
2019-05-19T10:00:08.775Z,17.80
2019-05-19T10:02:37.874Z,17.80
2019-05-19T10:05:08.265Z,17.80
2019-05-19T10:07:37.376Z,17.70
2019-05-19T10:10:15.465Z,17.70
2019-05-19T10:12:44.695Z,17.60
2019-05-19T10:15:14.204Z,17.60
2019-05-19T10:17:44.370Z,17.50
2019-05-19T10:20:14.299Z,17.50
2019-05-19T10:22:43.530Z,17.70
2019-05-19T10:25:22.054Z,17.80
2019-05-19T10:27:44.157Z,17.90
2019-05-19T10:30:13.997Z,18.00
2019-05-19T10:32:43.016Z,18.10
2019-05-19T10:35:12.277Z,18.10
2019-05-19T10:37:41.363Z,18.10
2019-05-19T10:40:10.895Z,18.20
2019-05-19T10:42:40.089Z,18.00
2019-05-19T10:45:10.103Z,17.90
2019-05-19T10:47:39.405Z,18.10
2019-05-19T10:50:09.600Z,18.10
2019-05-19T10:52:40.212Z,18.10
2019-05-19T10:55:09.465Z,18.20
2019-05-19T10:57:38.608Z,18.30
2019-05-19T11:00:08.416Z,18.20
2019-05-19T11:02:38.361Z,18.20
2019-05-19T11:05:11.041Z,18.30
2019-05-19T11:07:38.502Z,18.30
2019-05-19T11:10:07.920Z,18.40
2019-05-19T11:12:37.115Z,18.40
2019-05-19T11:15:10.107Z,18.50
2019-05-19T11:17:39.281Z,18.70
2019-05-19T11:20:08.592Z,18.90
2019-05-19T11:22:37.686Z,19.00
2019-05-19T11:25:08.230Z,19.10
2019-05-19T11:27:37.588Z,18.90
2019-05-19T11:30:07.557Z,18.70
2019-05-19T11:32:36.925Z,18.70
2019-05-19T11:35:07.414Z,18.80
2019-05-19T11:37:36.575Z,19.00
2019-05-19T11:42:56.774Z,19.20
2019-05-19T11:48:14.260Z,19.30
2019-05-19T11:53:33.041Z,19.50
2019-05-19T11:56:06.627Z,19.60
2019-05-19T12:01:26.606Z,19.90
2019-05-19T12:03:55.673Z,20.00
2019-05-19T12:14:56.853Z,19.60
2019-05-19T12:17:25.789Z,19.50
2019-05-19T12:19:56.833Z,19.30
2019-05-19T12:22:27.112Z,19.40
2019-05-19T12:24:57.304Z,19.50
2019-05-19T12:27:26.247Z,19.50
2019-05-19T12:29:55.482Z,19.60
2019-05-19T12:38:05.169Z,20.00
2019-05-19T12:40:36.581Z,20.00
2019-05-19T12:43:08.735Z,20.10
2019-05-19T12:45:40.882Z,19.90
2019-05-19T12:48:14.440Z,19.80
2019-05-19T12:50:43.457Z,19.80
2019-05-19T12:53:14.179Z,19.70
2019-05-19T12:55:46.300Z,19.80
2019-05-19T12:58:18.412Z,19.70
2019-05-19T13:00:47.633Z,19.80
2019-05-19T13:03:16.689Z,19.90
2019-05-19T13:05:45.706Z,19.90
2019-05-19T13:08:21.204Z,19.90
2019-05-19T13:10:59.742Z,19.70
2019-05-19T13:13:24.109Z,19.70
2019-05-19T13:15:53.314Z,19.70
2019-05-19T13:18:22.556Z,19.60
2019-05-19T13:20:51.600Z,19.60
2019-05-19T13:23:20.748Z,19.50
2019-05-19T13:25:49.732Z,19.40
2019-05-19T13:28:18.665Z,19.40
2019-05-19T13:30:47.744Z,19.40
2019-05-19T13:33:18.667Z,19.40
2019-05-19T13:35:47.782Z,19.50
2019-05-19T13:38:19.993Z,19.50
2019-05-19T13:40:49.110Z,19.50
2019-05-19T13:43:18.248Z,19.40
2019-05-19T13:45:47.419Z,19.40
2019-05-19T13:48:16.483Z,19.40
2019-05-19T13:50:45.539Z,19.50
2019-05-19T13:53:14.518Z,19.60
2019-05-19T13:55:43.616Z,19.70
2019-05-19T13:58:12.834Z,19.60
2019-05-19T14:00:41.892Z,19.60
2019-05-19T14:03:10.925Z,19.60
2019-05-19T14:05:39.920Z,19.60
2019-05-19T14:08:08.959Z,19.40
2019-05-19T14:10:38.064Z,19.40
2019-05-19T14:13:07.045Z,19.30
2019-05-19T14:15:36.063Z,19.40
2019-05-19T14:18:05.178Z,19.50
2019-05-19T14:20:34.263Z,19.60
2019-05-19T14:23:03.386Z,19.80
2019-05-19T14:25:32.495Z,19.80
2019-05-19T14:28:01.794Z,19.90
2019-05-19T14:30:30.936Z,20.10
2019-05-19T14:32:59.992Z,20.20
2019-05-19T14:35:29.311Z,20.30
2019-05-19T14:37:58.374Z,20.40
2019-05-19T14:40:27.441Z,20.50
2019-05-19T14:42:58.169Z,20.60
2019-05-19T14:45:27.215Z,20.60
2019-05-19T14:47:56.311Z,20.70
2019-05-19T14:50:25.720Z,20.70
2019-05-19T14:52:54.759Z,20.70
2019-05-19T14:55:24.090Z,20.70
2019-05-19T14:57:53.488Z,20.80
2019-05-19T15:00:23.013Z,20.90
2019-05-19T15:02:52.178Z,21.00
2019-05-19T15:05:21.338Z,21.10
2019-05-19T15:07:52.130Z,21.20
2019-05-19T15:10:21.594Z,21.20
2019-05-19T15:12:50.697Z,21.30
2019-05-19T15:15:19.936Z,21.40
2019-05-19T15:17:48.961Z,21.50
2019-05-19T15:20:19.357Z,21.50
2019-05-19T15:22:48.484Z,21.40
2019-05-19T15:25:17.749Z,21.50
2019-05-19T15:27:59.291Z,21.60
2019-05-19T15:30:17.682Z,21.80
2019-05-19T15:32:46.862Z,21.90
2019-05-19T15:35:15.905Z,22.00
2019-05-19T15:37:45.001Z,22.00
2019-05-19T15:40:14.673Z,22.10
2019-05-19T15:42:43.675Z,22.20
2019-05-19T15:45:13.263Z,22.10
2019-05-19T15:47:42.242Z,22.20
2019-05-19T15:50:11.686Z,22.30
2019-05-19T15:52:40.758Z,22.20
2019-05-19T15:55:10.154Z,22.30
2019-05-19T15:57:39.357Z,22.20
2019-05-19T16:00:09.019Z,22.40
2019-05-19T16:02:38.318Z,22.50
2019-05-19T16:05:08.140Z,22.50
2019-05-19T16:07:37.483Z,22.40
2019-05-19T16:10:10.496Z,21.90
2019-05-19T16:12:39.905Z,21.70
2019-05-19T16:15:11.084Z,21.60
2019-05-19T16:17:40.106Z,21.50
2019-05-19T16:20:09.489Z,21.30
2019-05-19T16:22:38.968Z,21.20
2019-05-19T16:25:08.289Z,21.00
2019-05-19T16:27:37.688Z,20.90
2019-05-19T16:30:10.608Z,20.80
2019-05-19T16:32:39.756Z,20.80
2019-05-19T16:35:09.752Z,20.60
2019-05-19T16:37:39.138Z,20.50
2019-05-19T16:40:09.007Z,20.30
2019-05-19T16:42:38.702Z,20.10
2019-05-19T16:45:08.527Z,19.80
2019-05-19T16:47:37.734Z,19.60
2019-05-19T16:50:08.162Z,19.50
2019-05-19T16:52:37.892Z,19.30
2019-05-19T16:55:21.463Z,19.10
2019-05-19T16:57:50.706Z,19.00
2019-05-19T17:00:20.391Z,18.60
2019-05-19T17:02:49.579Z,18.20
2019-05-19T17:05:18.952Z,17.60
2019-05-19T17:07:48.634Z,17.10
2019-05-19T17:10:18.571Z,16.60
2019-05-19T17:12:47.682Z,16.30
2019-05-19T17:15:18.068Z,16.00
2019-05-19T17:17:47.847Z,15.80
2019-05-19T17:20:17.286Z,15.70
2019-05-19T17:22:46.348Z,15.60
2019-05-19T17:25:15.762Z,15.50
2019-05-19T17:27:44.953Z,15.40
2019-05-19T17:30:16.224Z,15.30
2019-05-19T17:32:45.395Z,15.30
2019-05-19T17:35:14.658Z,15.30
2019-05-19T17:37:43.696Z,15.40
2019-05-19T17:40:13.391Z,15.40
2019-05-19T17:42:42.622Z,15.40
2019-05-19T17:45:11.942Z,15.40
2019-05-19T17:47:41.323Z,15.40
2019-05-19T17:50:10.994Z,15.30
2019-05-19T17:52:40.136Z,15.30
2019-05-19T17:55:09.857Z,15.20
2019-05-19T17:57:39.589Z,15.20
2019-05-19T18:00:10.228Z,15.30
2019-05-19T18:02:39.634Z,15.30
2019-05-19T18:05:08.936Z,15.40
2019-05-19T18:07:38.071Z,15.50
2019-05-19T18:10:07.682Z,15.50
2019-05-19T18:12:36.817Z,15.60
2019-05-19T18:15:06.897Z,15.60
2019-05-19T18:17:35.932Z,15.60
2019-05-19T18:20:06.521Z,15.70
2019-05-19T18:22:35.757Z,15.60
2019-05-19T18:25:05.836Z,15.60
2019-05-19T18:27:34.901Z,15.40
2019-05-19T18:30:04.685Z,15.40
2019-05-19T18:32:33.747Z,15.30
2019-05-19T18:35:02.916Z,15.30
2019-05-19T18:37:31.921Z,15.20
2019-05-19T18:40:01.093Z,15.20
2019-05-19T18:42:30.150Z,15.20
2019-05-19T18:44:59.149Z,15.20
2019-05-19T18:47:28.187Z,15.20
2019-05-19T18:49:57.242Z,15.30
2019-05-19T18:52:26.480Z,15.30
2019-05-19T18:54:55.595Z,15.30
2019-05-19T18:57:24.718Z,15.20
2019-05-19T18:59:53.792Z,15.20
2019-05-19T19:02:22.992Z,15.10
2019-05-19T19:04:52.198Z,15.00
2019-05-19T19:07:22.869Z,15.00
2019-05-19T19:09:52.054Z,15.00
2019-05-19T19:12:21.220Z,15.10
2019-05-19T19:14:50.430Z,15.30
2019-05-19T19:17:19.568Z,15.50
2019-05-19T19:19:48.579Z,15.60
2019-05-19T19:22:17.552Z,15.60
2019-05-19T19:24:46.497Z,15.60
2019-05-19T19:27:15.491Z,15.70
2019-05-19T19:29:44.741Z,15.70
2019-05-19T19:32:14.126Z,15.60
2019-05-19T19:34:43.504Z,15.60
2019-05-19T19:37:12.696Z,15.60
2019-05-19T19:39:41.671Z,15.50
2019-05-19T19:42:10.868Z,15.50
2019-05-19T19:44:40.067Z,15.50
2019-05-19T19:47:09.298Z,15.50
2019-05-19T19:49:38.466Z,15.50
2019-05-19T19:52:07.548Z,15.50
2019-05-19T19:54:36.498Z,15.50
2019-05-19T19:57:05.629Z,15.40
2019-05-19T19:59:34.693Z,15.40
2019-05-19T20:02:03.825Z,15.40
2019-05-19T20:04:32.805Z,15.30
2019-05-19T20:07:01.750Z,15.30
2019-05-19T20:09:30.897Z,15.20
2019-05-19T20:12:00.155Z,15.10
2019-05-19T20:14:29.157Z,15.10
2019-05-19T20:16:58.200Z,15.10
2019-05-19T20:19:27.407Z,15.00
2019-05-19T20:21:56.507Z,15.00
2019-05-19T20:24:25.582Z,14.90
2019-05-19T20:26:54.764Z,14.80
2019-05-19T20:29:23.804Z,14.70
2019-05-19T20:31:52.877Z,14.70
2019-05-19T20:34:22.157Z,14.70
2019-05-19T20:36:51.425Z,14.60
2019-05-19T20:39:20.768Z,14.50
2019-05-19T20:41:49.910Z,14.50
2019-05-19T20:44:18.941Z,14.50
2019-05-19T20:46:48.063Z,14.50
2019-05-19T20:49:17.068Z,14.50
2019-05-19T20:51:46.016Z,14.50
2019-05-19T20:54:15.134Z,14.40
2019-05-19T20:56:44.139Z,14.40
2019-05-19T20:59:13.221Z,14.40
2019-05-19T21:01:44.905Z,14.40
2019-05-19T21:04:12.843Z,14.40
2019-05-19T21:06:41.890Z,14.30
2019-05-19T21:09:10.870Z,14.30
2019-05-19T21:11:39.907Z,14.30
2019-05-19T21:14:08.958Z,14.30
2019-05-19T21:16:38.011Z,14.30
2019-05-19T21:19:07.086Z,14.20
2019-05-19T21:21:36.119Z,14.10
2019-05-19T21:24:05.169Z,14.10
2019-05-19T21:26:34.213Z,14.10
2019-05-19T21:29:03.365Z,14.10
2019-05-19T21:31:32.377Z,14.20
2019-05-19T21:34:01.568Z,14.20
2019-05-19T21:36:30.811Z,14.20
2019-05-19T21:39:00.027Z,14.20
2019-05-19T21:41:29.230Z,14.20
2019-05-19T21:43:58.245Z,14.20
2019-05-19T21:46:27.237Z,14.20
2019-05-19T21:48:56.343Z,14.20
2019-05-19T21:51:25.526Z,14.20
2019-05-19T21:53:54.561Z,14.20
2019-05-19T21:56:23.514Z,14.20
2019-05-19T21:58:52.530Z,14.20
2019-05-19T22:01:23.554Z,14.10
2019-05-19T22:10:12.376Z,14.00
2019-05-19T22:12:41.452Z,13.90
2019-05-19T22:15:11.801Z,13.90
2019-05-19T22:17:41.077Z,13.90
2019-05-19T22:20:10.231Z,13.90
2019-05-19T22:22:39.302Z,13.90
2019-05-19T22:25:08.509Z,13.90
2019-05-19T22:27:37.721Z,13.90
2019-05-19T22:30:07.683Z,13.90
2019-05-19T22:32:36.799Z,13.80
2019-05-19T22:35:06.688Z,13.90
2019-05-19T22:37:35.676Z,13.80
2019-05-19T22:40:05.976Z,13.80
2019-05-19T22:42:35.061Z,13.80
2019-05-19T22:45:06.336Z,13.90
2019-05-19T22:47:35.369Z,13.80
2019-05-19T22:50:07.450Z,13.80
2019-05-19T22:52:36.474Z,13.80
2019-05-19T22:55:09.101Z,13.80
2019-05-19T22:57:38.127Z,13.70
2019-05-19T23:00:09.779Z,13.70
2019-05-19T23:02:38.992Z,13.70
2019-05-19T23:05:08.935Z,13.70
2019-05-19T23:07:38.001Z,13.60
2019-05-19T23:10:07.872Z,13.70
2019-05-19T23:12:37.062Z,13.70
2019-05-19T23:15:07.719Z,13.70
2019-05-19T23:17:36.911Z,13.70
2019-05-19T23:20:06.283Z,13.80
2019-05-19T23:22:35.500Z,13.80
2019-05-19T23:25:06.128Z,13.80
2019-05-19T23:27:35.296Z,13.80
2019-05-19T23:30:06.679Z,13.80
2019-05-19T23:32:35.765Z,13.80
2019-05-19T23:35:08.024Z,13.80
2019-05-19T23:37:37.078Z,13.90
2019-05-19T23:40:07.747Z,13.90
2019-05-19T23:42:36.830Z,13.90
2019-05-19T23:45:07.236Z,14.00
2019-05-19T23:47:36.445Z,14.00
2019-05-19T23:50:06.460Z,14.00
2019-05-19T23:52:35.405Z,14.00
2019-05-19T23:55:05.917Z,14.00
2019-05-19T23:57:34.934Z,14.00
